createdAt,value
2023-05-20T00:02:42.366Z,8.25
2023-05-20T00:05:32.396Z,7.93
2023-05-20T00:08:21.954Z,7.03
2023-05-20T00:11:11.610Z,7.53
2023-05-20T00:14:00.960Z,7.10
2023-05-20T00:16:52.231Z,6.82
2023-05-20T00:19:44.505Z,6.75
2023-05-20T00:22:38.641Z,6.78
2023-05-20T00:25:30.602Z,6.90
2023-05-20T00:28:21.326Z,6.53
2023-05-20T00:31:11.350Z,6.30
2023-05-20T00:34:02.082Z,6.82
2023-05-20T00:36:51.863Z,6.45
2023-05-20T00:39:41.313Z,6.53
2023-05-20T00:42:31.012Z,6.50
2023-05-20T00:45:20.695Z,6.45
2023-05-20T00:48:11.241Z,6.95
2023-05-20T00:51:03.143Z,6.63
2023-05-20T00:53:52.854Z,6.90
2023-05-20T00:56:46.631Z,7.00
2023-05-20T00:59:36.956Z,6.97
2023-05-20T01:02:26.723Z,6.85
2023-05-20T01:05:16.246Z,6.95
2023-05-20T01:08:08.062Z,7.40
2023-05-20T01:11:05.206Z,7.30
2023-05-20T01:14:00.322Z,7.38
2023-05-20T01:16:53.971Z,7.63
2023-05-20T01:19:44.615Z,7.60
2023-05-20T01:22:37.842Z,7.82
2023-05-20T01:25:27.265Z,7.25
2023-05-20T01:28:18.120Z,7.13
2023-05-20T01:31:17.911Z,6.97
2023-05-20T01:34:07.576Z,7.82
2023-05-20T01:36:57.765Z,7.80
2023-05-20T01:39:50.798Z,8.65
2023-05-20T01:42:42.915Z,7.60
2023-05-20T01:45:33.353Z,7.90
2023-05-20T01:48:22.871Z,8.15
2023-05-20T01:51:12.333Z,7.82
2023-05-20T01:54:02.027Z,6.70
2023-05-20T01:56:53.017Z,7.80
2023-05-20T01:59:45.758Z,7.63
2023-05-20T02:02:35.246Z,8.52
2023-05-20T02:05:24.686Z,7.38
2023-05-20T02:08:14.015Z,8.52
2023-05-20T02:11:03.949Z,8.15
2023-05-20T02:13:54.649Z,7.97
2023-05-20T02:16:44.663Z,8.52
2023-05-20T02:19:35.636Z,8.18
2023-05-20T02:22:24.998Z,9.35
2023-05-20T02:25:14.600Z,8.10
2023-05-20T02:28:10.798Z,7.88
2023-05-20T02:31:01.584Z,8.35
2023-05-20T02:33:53.934Z,8.15
2023-05-20T02:36:43.317Z,8.27
2023-05-20T02:39:33.178Z,9.18
2023-05-20T02:42:22.504Z,9.02
2023-05-20T02:45:12.662Z,8.70
2023-05-20T02:48:03.413Z,8.02
2023-05-20T02:50:54.426Z,8.10
2023-05-20T02:53:43.682Z,8.20
2023-05-20T02:56:34.447Z,8.90
2023-05-20T02:59:25.355Z,8.82
2023-05-20T03:02:14.841Z,8.98
2023-05-20T03:05:06.358Z,8.98
2023-05-20T03:07:55.707Z,9.02
2023-05-20T03:10:45.001Z,8.35
2023-05-20T03:13:35.113Z,9.02
2023-05-20T03:16:25.340Z,9.88
2023-05-20T03:19:14.844Z,9.02
2023-05-20T03:22:06.159Z,9.70
2023-05-20T03:24:55.903Z,9.23
2023-05-20T03:27:46.718Z,9.00
2023-05-20T03:30:36.076Z,8.38
2023-05-20T03:33:26.420Z,8.82
2023-05-20T03:36:17.013Z,8.82
2023-05-20T03:39:07.822Z,9.00
2023-05-20T03:41:57.440Z,8.90
2023-05-20T03:44:46.854Z,9.30
2023-05-20T03:47:38.599Z,9.25
2023-05-20T03:50:28.653Z,9.32
2023-05-20T03:53:20.352Z,9.15
2023-05-20T03:56:11.184Z,9.18
2023-05-20T03:59:02.180Z,9.90
2023-05-20T04:01:52.013Z,9.45
2023-05-20T04:04:43.197Z,9.63
2023-05-20T04:07:32.993Z,9.68
2023-05-20T04:10:23.190Z,10.07
2023-05-20T04:13:15.702Z,10.38
2023-05-20T04:16:05.530Z,9.98
2023-05-20T04:18:54.946Z,9.60
2023-05-20T04:21:45.295Z,10.38
2023-05-20T04:24:35.010Z,10.05
2023-05-20T04:27:24.540Z,10.07
2023-05-20T04:30:16.937Z,10.13
2023-05-20T04:33:06.851Z,10.23
2023-05-20T04:35:58.790Z,10.65
2023-05-20T04:38:48.380Z,10.25
2023-05-20T04:41:37.895Z,10.35
2023-05-20T04:44:28.439Z,9.63
2023-05-20T04:47:19.259Z,9.77
2023-05-20T04:50:11.912Z,10.50
2023-05-20T04:53:03.275Z,10.35
2023-05-20T04:55:56.984Z,9.75
2023-05-20T04:58:46.732Z,9.95
2023-05-20T05:01:36.183Z,10.90
2023-05-20T05:04:26.968Z,10.32
2023-05-20T05:07:16.347Z,9.98
2023-05-20T05:10:06.787Z,10.45
2023-05-20T05:12:56.153Z,9.70
2023-05-20T05:15:45.645Z,9.93
2023-05-20T05:18:34.996Z,9.98
2023-05-20T05:21:25.858Z,9.75
2023-05-20T05:24:15.650Z,10.05
2023-05-20T05:27:05.853Z,9.07
2023-05-20T05:29:55.532Z,9.57
2023-05-20T05:32:45.164Z,10.80
2023-05-20T05:35:34.950Z,9.73
2023-05-20T05:38:26.092Z,12.02
2023-05-20T05:41:15.666Z,10.60
2023-05-20T05:44:06.082Z,10.82
2023-05-20T05:46:55.678Z,10.75
2023-05-20T05:49:44.981Z,10.13
2023-05-20T05:52:34.530Z,11.60
2023-05-20T05:55:26.852Z,9.95
2023-05-20T05:58:17.766Z,10.70
2023-05-20T06:01:07.906Z,9.82
2023-05-20T06:03:57.502Z,9.23
2023-05-20T06:06:46.986Z,9.68
2023-05-20T06:09:38.979Z,10.00
2023-05-20T06:12:29.829Z,9.68
2023-05-20T06:15:22.161Z,9.10
2023-05-20T06:18:14.204Z,8.77
2023-05-20T06:21:04.743Z,8.23
2023-05-20T06:23:57.118Z,8.40
2023-05-20T06:26:46.687Z,7.85
2023-05-20T06:29:37.499Z,8.43
2023-05-20T06:32:27.064Z,8.27
2023-05-20T06:35:18.593Z,8.00
2023-05-20T06:38:08.341Z,8.43
2023-05-20T06:40:57.862Z,8.02
2023-05-20T06:43:47.964Z,6.88
2023-05-20T06:46:57.436Z,8.18
2023-05-20T06:49:47.775Z,7.85
2023-05-20T06:52:38.638Z,7.10
2023-05-20T06:55:28.038Z,6.25
2023-05-20T06:58:17.558Z,5.78
2023-05-20T07:01:07.180Z,6.07
2023-05-20T07:03:58.858Z,6.03
2023-05-20T07:06:48.361Z,6.57
2023-05-20T07:09:37.818Z,6.60
2023-05-20T07:12:29.029Z,6.57
2023-05-20T07:15:18.677Z,6.50
2023-05-20T07:18:08.763Z,6.68
2023-05-20T07:20:59.606Z,6.63
2023-05-20T07:24:12.330Z,6.78
2023-05-20T07:27:01.647Z,6.25
2023-05-20T07:29:51.174Z,6.60
2023-05-20T07:32:41.137Z,6.60
2023-05-20T07:35:31.610Z,7.43
2023-05-20T07:38:25.256Z,6.22
2023-05-20T07:41:20.037Z,6.97
2023-05-20T07:44:11.388Z,6.45
2023-05-20T07:47:04.755Z,6.22
2023-05-20T07:49:55.602Z,6.10
2023-05-20T07:55:46.917Z,6.15
2023-05-20T07:58:37.020Z,5.97
2023-05-20T08:01:27.009Z,6.35
2023-05-20T08:04:17.384Z,6.22
2023-05-20T08:07:08.437Z,6.30
2023-05-20T08:10:11.491Z,5.97
2023-05-20T08:13:02.316Z,7.10
2023-05-20T08:15:54.922Z,6.20
2023-05-20T08:18:44.456Z,6.50
2023-05-20T08:21:33.699Z,6.03
2023-05-20T08:24:23.002Z,5.88
2023-05-20T08:27:12.672Z,6.70
2023-05-20T08:30:03.631Z,6.50
2023-05-20T08:32:54.084Z,6.60
2023-05-20T08:35:43.472Z,6.10
2023-05-20T08:38:32.671Z,6.38
2023-05-20T08:41:22.826Z,6.07
2023-05-20T08:44:12.890Z,6.15
2023-05-20T08:47:06.421Z,6.65
2023-05-20T08:49:56.208Z,6.82
2023-05-20T08:52:47.381Z,6.72
2023-05-20T08:55:44.703Z,6.30
2023-05-20T08:58:34.175Z,6.60
2023-05-20T09:01:26.392Z,6.53
2023-05-20T09:04:17.772Z,6.43
2023-05-20T09:07:07.500Z,6.05
2023-05-20T09:09:56.834Z,6.13
2023-05-20T09:12:46.272Z,6.30
2023-05-20T09:15:37.175Z,5.65
2023-05-20T09:18:26.848Z,6.97
2023-05-20T09:21:17.509Z,7.88
2023-05-20T09:24:07.276Z,6.18
2023-05-20T09:26:56.630Z,6.60
2023-05-20T09:29:46.075Z,6.35
2023-05-20T09:32:35.500Z,7.28
2023-05-20T09:35:25.133Z,7.22
2023-05-20T09:38:16.710Z,6.82
2023-05-20T09:41:09.901Z,7.60
2023-05-20T09:43:59.991Z,7.63
2023-05-20T09:46:50.251Z,7.88
2023-05-20T09:49:40.871Z,6.75
2023-05-20T09:52:31.286Z,7.30
2023-05-20T09:55:24.484Z,7.07
2023-05-20T09:58:16.356Z,6.85
2023-05-20T10:01:07.086Z,7.30
2023-05-20T10:03:57.669Z,6.68
2023-05-20T10:07:06.647Z,8.05
2023-05-20T10:10:13.091Z,7.07
2023-05-20T10:13:17.153Z,8.48
2023-05-20T10:16:30.841Z,9.55
2023-05-20T10:19:31.370Z,8.93
2023-05-20T10:22:29.927Z,7.10
2023-05-20T10:25:27.807Z,7.53
2023-05-20T10:28:26.499Z,8.13
2023-05-20T10:31:21.945Z,8.38
2023-05-20T10:34:18.152Z,7.28
2023-05-20T10:37:07.670Z,12.13
2023-05-20T10:40:09.855Z,9.38
2023-05-20T10:43:10.610Z,8.75
2023-05-20T10:46:03.244Z,9.27
2023-05-20T10:48:54.644Z,7.82
2023-05-20T10:51:46.398Z,8.13
2023-05-20T10:54:38.496Z,8.88
2023-05-20T10:57:29.935Z,8.10
2023-05-20T11:00:20.875Z,9.48
2023-05-20T11:03:13.275Z,9.27
2023-05-20T11:06:02.747Z,8.32
2023-05-20T11:08:52.066Z,8.07
2023-05-20T11:11:42.409Z,8.40
2023-05-20T11:14:32.232Z,20.10
2023-05-20T11:17:22.072Z,9.35
2023-05-20T11:20:16.000Z,8.73
2023-05-20T11:23:07.471Z,8.15
2023-05-20T11:25:59.724Z,8.25
2023-05-20T11:28:49.068Z,7.57
2023-05-20T11:31:40.318Z,8.60
2023-05-20T11:34:36.596Z,8.35
2023-05-20T11:37:27.413Z,9.18
2023-05-20T11:40:16.808Z,9.00
2023-05-20T11:43:06.052Z,9.65
2023-05-20T11:45:59.441Z,10.32
2023-05-20T11:48:55.036Z,9.48
2023-05-20T11:51:46.039Z,9.90
2023-05-20T11:54:38.904Z,10.07
2023-05-20T11:57:28.221Z,10.18
2023-05-20T12:00:18.070Z,10.35
2023-05-20T12:03:07.570Z,9.45
2023-05-20T12:05:58.335Z,9.55
2023-05-20T12:08:47.896Z,8.70
2023-05-20T12:11:41.713Z,9.20
2023-05-20T12:14:31.575Z,9.60
2023-05-20T12:17:20.840Z,9.57
2023-05-20T12:20:11.796Z,8.82
2023-05-20T12:23:01.489Z,9.07
2023-05-20T12:25:51.119Z,8.80
2023-05-20T12:28:41.814Z,8.98
2023-05-20T12:31:33.078Z,8.63
2023-05-20T12:37:13.687Z,8.60
2023-05-20T12:40:05.680Z,8.13
2023-05-20T12:42:55.045Z,7.85
2023-05-20T12:45:45.885Z,7.70
2023-05-20T12:48:35.246Z,8.68
2023-05-20T12:51:24.493Z,8.43
2023-05-20T12:54:14.009Z,8.38
2023-05-20T12:57:03.344Z,9.13
2023-05-20T12:59:52.708Z,9.43
2023-05-20T13:02:44.350Z,9.25
2023-05-20T13:05:33.965Z,8.88
2023-05-20T13:08:23.233Z,8.98
2023-05-20T13:11:12.744Z,9.32
2023-05-20T13:14:02.249Z,9.35
2023-05-20T13:16:55.058Z,10.30
2023-05-20T13:22:35.250Z,9.30
2023-05-20T13:25:24.642Z,9.68
2023-05-20T13:28:16.900Z,9.48
2023-05-20T13:31:07.935Z,10.30
2023-05-20T13:34:03.044Z,9.73
2023-05-20T13:36:53.776Z,9.80
2023-05-20T13:39:43.351Z,9.05
2023-05-20T13:42:32.778Z,9.43
2023-05-20T13:45:22.555Z,9.20
2023-05-20T13:48:12.274Z,9.57
2023-05-20T13:51:02.001Z,10.23
2023-05-20T13:53:52.750Z,9.80
2023-05-20T13:56:42.668Z,9.75
2023-05-20T13:59:32.048Z,10.25
2023-05-20T14:02:21.457Z,9.95
2023-05-20T14:05:11.240Z,9.98
2023-05-20T14:08:00.594Z,10.40
2023-05-20T14:10:54.905Z,9.15
2023-05-20T14:13:45.091Z,10.20
2023-05-20T14:16:34.518Z,10.63
2023-05-20T14:19:23.961Z,9.70
2023-05-20T14:22:15.452Z,10.52
2023-05-20T14:25:05.559Z,9.68
2023-05-20T14:27:56.592Z,10.05
2023-05-20T14:30:50.076Z,10.48
2023-05-20T14:33:39.878Z,9.98
2023-05-20T14:36:32.566Z,12.37
2023-05-20T14:39:24.461Z,9.27
2023-05-20T14:42:13.937Z,9.63
2023-05-20T14:45:05.201Z,9.55
2023-05-20T14:47:54.803Z,10.20
2023-05-20T14:50:47.690Z,9.63
2023-05-20T14:53:38.794Z,10.40
2023-05-20T14:56:28.207Z,10.60
2023-05-20T14:59:17.527Z,9.07
2023-05-20T15:02:08.840Z,9.02
2023-05-20T15:04:58.352Z,8.50
2023-05-20T15:08:00.705Z,8.65
2023-05-20T15:10:50.584Z,9.43
2023-05-20T15:13:40.620Z,8.77
2023-05-20T15:16:31.850Z,22.83
2023-05-20T15:19:23.041Z,8.40
2023-05-20T15:22:14.249Z,9.02
2023-05-20T15:25:09.257Z,8.15
2023-05-20T15:28:00.413Z,8.13
2023-05-20T15:30:56.589Z,8.38
2023-05-20T15:33:51.697Z,8.57
2023-05-20T15:36:42.648Z,8.20
2023-05-20T15:39:31.915Z,8.85
2023-05-20T15:42:27.052Z,8.80
2023-05-20T15:45:21.826Z,8.48
2023-05-20T15:48:11.683Z,8.30
2023-05-20T15:51:05.419Z,8.57
2023-05-20T15:54:01.871Z,8.50
2023-05-20T15:56:52.495Z,8.60
2023-05-20T15:59:41.830Z,8.90
2023-05-20T16:02:35.484Z,8.65
2023-05-20T16:05:25.897Z,8.20
2023-05-20T16:08:24.006Z,9.00
2023-05-20T16:11:17.762Z,8.80
2023-05-20T16:14:08.533Z,8.07
2023-05-20T16:17:02.643Z,8.05
2023-05-20T16:19:55.088Z,8.00
2023-05-20T16:22:47.101Z,7.50
2023-05-20T16:25:38.589Z,7.87
2023-05-20T16:28:29.239Z,7.22
2023-05-20T16:31:22.385Z,7.70
2023-05-20T16:34:11.801Z,8.25
2023-05-20T16:37:01.462Z,8.15
2023-05-20T16:39:50.922Z,7.13
2023-05-20T16:42:40.948Z,7.90
2023-05-20T16:45:31.829Z,7.78
2023-05-20T16:48:21.056Z,8.60
2023-05-20T16:51:10.391Z,20.13
2023-05-20T16:53:59.690Z,8.85
2023-05-20T16:56:49.030Z,9.05
2023-05-20T16:59:38.277Z,9.05
2023-05-20T17:02:29.101Z,10.85
2023-05-20T17:05:18.869Z,12.13
2023-05-20T17:08:08.212Z,12.20
2023-05-20T17:10:57.972Z,14.90
2023-05-20T17:13:47.386Z,13.90
2023-05-20T17:16:36.962Z,13.88
2023-05-20T17:19:27.929Z,14.77
2023-05-20T17:22:17.596Z,22.35
2023-05-20T17:25:08.034Z,15.32
2023-05-20T17:27:57.302Z,15.35
2023-05-20T17:30:46.649Z,16.25
2023-05-20T17:33:35.979Z,15.98
2023-05-20T17:36:26.899Z,17.27
2023-05-20T17:39:17.020Z,18.20
2023-05-20T17:42:07.031Z,19.58
2023-05-20T17:44:56.446Z,20.73
2023-05-20T17:47:45.852Z,23.63
2023-05-20T17:50:35.448Z,28.23
2023-05-20T17:53:26.396Z,30.63
2023-05-20T17:56:15.953Z,35.67
2023-05-20T17:59:05.782Z,32.63
2023-05-20T18:01:55.243Z,30.20
2023-05-20T18:04:44.672Z,31.40
2023-05-20T18:07:34.574Z,31.38
2023-05-20T18:10:25.403Z,31.13
2023-05-20T18:13:15.251Z,29.55
2023-05-20T18:16:04.816Z,31.45
2023-05-20T18:18:54.491Z,31.13
2023-05-20T18:21:44.484Z,40.00
2023-05-20T18:24:33.884Z,31.95
2023-05-20T18:27:24.978Z,30.27
2023-05-20T18:30:14.458Z,30.73
2023-05-20T18:33:03.881Z,30.50
2023-05-20T18:35:54.299Z,31.15
2023-05-20T18:38:45.122Z,30.77
2023-05-20T18:41:45.952Z,31.08
2023-05-20T18:44:37.515Z,29.95
2023-05-20T18:47:27.731Z,32.10
2023-05-20T18:50:17.234Z,31.98
2023-05-20T18:53:06.476Z,32.80
2023-05-20T18:55:56.235Z,34.40
2023-05-20T18:58:45.992Z,34.08
2023-05-20T19:01:36.857Z,32.65
2023-05-20T19:04:26.681Z,33.50
2023-05-20T19:07:16.056Z,33.20
2023-05-20T19:10:06.897Z,32.17
2023-05-20T19:12:56.933Z,33.42
2023-05-20T19:15:46.306Z,31.30
2023-05-20T19:18:36.975Z,33.83
2023-05-20T19:21:26.391Z,30.60
2023-05-20T19:24:17.714Z,32.20
2023-05-20T19:27:07.569Z,32.20
2023-05-20T19:29:56.881Z,31.73
2023-05-20T19:32:46.334Z,31.83
2023-05-20T19:35:37.283Z,32.08
2023-05-20T19:38:29.947Z,35.25
2023-05-20T19:41:19.612Z,31.50
2023-05-20T19:44:10.309Z,31.40
2023-05-20T19:46:59.748Z,30.67
2023-05-20T19:49:49.069Z,29.05
2023-05-20T19:52:39.824Z,29.23
2023-05-20T19:55:29.158Z,29.98
2023-05-20T19:58:18.508Z,28.92
2023-05-20T20:01:07.915Z,29.25
2023-05-20T20:03:57.515Z,29.85
2023-05-20T20:06:48.230Z,32.20
2023-05-20T20:09:39.232Z,31.67
2023-05-20T20:12:28.592Z,31.95
2023-05-20T20:15:20.603Z,30.65
2023-05-20T20:18:10.100Z,32.53
2023-05-20T20:21:00.677Z,32.17
2023-05-20T20:23:50.093Z,32.58
2023-05-20T20:26:40.786Z,31.80
2023-05-20T20:29:30.033Z,33.05
2023-05-20T20:32:19.508Z,33.05
2023-05-20T20:35:10.386Z,32.83
2023-05-20T20:38:00.240Z,33.58
2023-05-20T20:40:50.031Z,33.40
2023-05-20T20:43:42.749Z,33.75
2023-05-20T20:46:32.121Z,35.70
2023-05-20T20:49:22.573Z,37.22
2023-05-20T20:52:12.495Z,33.47
2023-05-20T20:55:01.995Z,33.42
2023-05-20T20:57:51.350Z,32.95
2023-05-20T21:00:44.466Z,33.42
2023-05-20T21:03:35.184Z,33.40
2023-05-20T21:06:24.456Z,34.22
2023-05-20T21:09:13.954Z,36.88
2023-05-20T21:12:06.703Z,34.95
2023-05-20T21:14:56.223Z,35.08
2023-05-20T21:17:46.947Z,35.65
2023-05-20T21:20:36.525Z,34.35
2023-05-20T21:23:25.969Z,35.70
2023-05-20T21:26:15.327Z,35.85
2023-05-20T21:29:04.843Z,36.95
2023-05-20T21:31:55.178Z,36.45
2023-05-20T21:34:45.935Z,36.92
2023-05-20T21:37:35.624Z,36.53
2023-05-20T21:40:25.130Z,36.83
2023-05-20T21:43:14.394Z,37.05
2023-05-20T21:46:03.824Z,37.90
2023-05-20T21:48:53.148Z,38.08
2023-05-20T21:51:44.042Z,36.92
2023-05-20T21:54:33.705Z,38.30
2023-05-20T21:57:23.017Z,39.33
2023-05-20T22:00:15.348Z,36.90
2023-05-20T22:03:04.923Z,37.65
2023-05-20T22:05:55.508Z,36.85
2023-05-20T22:08:46.351Z,37.38
2023-05-20T22:11:37.763Z,40.40
2023-05-20T22:14:27.529Z,38.70
2023-05-20T22:17:18.006Z,36.47
2023-05-20T22:20:10.643Z,36.05
2023-05-20T22:23:00.145Z,37.25
2023-05-20T22:25:51.130Z,36.10
2023-05-20T22:28:40.494Z,37.58
2023-05-20T22:31:29.964Z,37.70
2023-05-20T22:34:20.319Z,37.78
2023-05-20T22:37:10.314Z,36.50
2023-05-20T22:39:59.782Z,37.55
2023-05-20T22:42:53.974Z,37.33
2023-05-20T22:45:43.384Z,36.30
2023-05-20T22:48:32.771Z,35.90
2023-05-20T22:51:22.438Z,37.42
2023-05-20T22:54:13.822Z,38.67
2023-05-20T22:57:03.420Z,36.15
2023-05-20T22:59:58.655Z,37.53
2023-05-20T23:02:50.216Z,36.70
2023-05-20T23:05:39.552Z,37.60
2023-05-20T23:08:28.939Z,36.75
2023-05-20T23:11:18.252Z,36.25
2023-05-20T23:14:07.790Z,35.20
2023-05-20T23:16:58.635Z,37.03
2023-05-20T23:19:48.737Z,37.50
2023-05-20T23:22:38.105Z,37.40
2023-05-20T23:25:27.839Z,37.63
2023-05-20T23:28:20.215Z,39.17
2023-05-20T23:31:10.476Z,38.15
2023-05-20T23:34:03.827Z,38.60
2023-05-20T23:36:53.330Z,37.83
2023-05-20T23:39:42.945Z,37.28
2023-05-20T23:42:32.744Z,37.90
2023-05-20T23:45:22.133Z,38.22
2023-05-20T23:48:13.622Z,37.17
2023-05-20T23:51:04.646Z,37.65
2023-05-20T23:53:53.957Z,38.80
2023-05-20T23:56:44.419Z,39.72
2023-05-20T23:59:34.352Z,37.90
